.
WxDataArchive / Data Records for 2011-12-05
2011-12-04 December 2011 2011-12-06

Data Records for Monday, 05 December 2011

Time	Temp	Chill	HIndex	Humid	Dewpt	 Wind 	HiWind	WindDir	Rain 	Barom 
-----	----	-----	------	-----	-----	------	------	-------	-----	----- 
00:00	41.2	41.2	41.2	95	39.9	0	0	---	0.00	30.197 
00:05	41.3	41.3	41.3	95	40.0	0	1	248	0.00	30.197 
00:10	41.2	41.2	41.2	95	39.9	0	1	248	0.00	30.197 
00:15	41.2	41.2	41.2	95	39.9	0	2	248	0.00	30.194 
00:20	41.2	41.2	41.2	95	39.9	0	2	248	0.00	30.194 
00:25	41.1	41.1	41.1	95	39.8	0	1	248	0.00	30.194 
00:30	41.1	41.1	41.1	95	39.8	0	1	248	0.00	30.193 
00:35	41.1	41.1	41.1	95	39.8	0	1	248	0.00	30.193 
00:40	41.1	41.1	41.1	95	39.8	0	1	248	0.00	30.193 
00:45	41.1	41.1	41.1	95	39.8	0	1	248	0.00	30.195 
00:50	41.1	41.1	41.1	95	39.8	0	1	248	0.00	30.195 
00:55	41.1	41.1	41.1	95	39.8	0	1	248	0.00	30.195 
01:00	40.9	40.9	40.9	95	39.6	0	0	---	0.00	30.184 
01:05	40.9	40.9	40.9	95	39.6	0	0	---	0.00	30.184 
01:10	40.9	40.9	40.9	95	39.6	0	1	248	0.00	30.184 
01:15	40.9	40.9	40.9	95	39.6	0	0	---	0.00	30.177 
01:20	40.9	40.9	40.9	95	39.6	0	0	---	0.00	30.177 
01:25	41.1	41.1	41.1	95	39.8	0	0	---	0.00	30.177 
01:30	41.1	41.1	41.1	95	39.8	0	0	---	0.00	30.174 
01:35	41.1	41.1	41.1	95	39.8	0	1	248	0.00	30.174 
01:40	40.9	40.9	40.9	95	39.6	0	1	248	0.00	30.174 
01:45	40.8	40.8	40.8	95	39.5	0	1	248	0.00	30.177 
01:50	40.8	40.8	40.8	95	39.5	0	1	248	0.00	30.177 
01:55	40.5	40.5	40.5	95	39.2	0	2	248	0.00	30.177 
02:00	40.3	40.3	40.3	95	39.0	0	1	248	0.00	30.175 
02:05	40.2	40.2	40.2	95	38.9	0	1	248	0.00	30.175 
02:10	40.1	40.1	40.1	95	38.8	0	1	248	0.00	30.175 
02:15	40.1	40.1	40.1	95	38.8	0	1	248	0.00	30.175 
02:20	40.1	40.1	40.1	95	38.8	0	1	248	0.00	30.175 
02:25	40.1	40.1	40.1	95	38.8	0	1	248	0.00	30.175 
02:30	40.1	40.1	40.1	95	38.8	0	1	248	0.00	30.188 
02:35	39.9	39.9	39.9	95	38.6	0	1	248	0.00	30.188 
02:40	39.9	39.9	39.9	95	38.6	0	1	248	0.00	30.188 
02:45	39.9	39.9	39.9	95	38.6	0	2	248	0.00	30.195 
02:50	39.9	39.9	39.9	95	38.6	0	1	248	0.00	30.195 
02:55	39.9	39.9	39.9	95	38.6	0	3	248	0.00	30.195 
03:00	39.8	39.8	39.8	95	38.5	0	1	248	0.00	30.198 
03:05	39.6	39.6	39.6	95	38.3	0	1	248	0.00	30.198 
03:10	39.5	39.5	39.5	95	38.2	0	1	248	0.00	30.198 
03:15	39.5	39.5	39.5	94	37.9	0	1	248	0.01	30.193 
03:20	39.3	39.3	39.3	94	37.7	0	1	248	0.00	30.193 
03:25	39.2	39.2	39.2	94	37.6	0	0	---	0.00	30.193 
03:30	39.2	39.2	39.2	94	37.6	0	0	---	0.00	30.197 
03:35	39.2	39.2	39.2	94	37.6	0	1	248	0.00	30.197 
03:40	39.2	39.2	39.2	94	37.6	0	2	248	0.00	30.197 
03:45	39.2	39.2	39.2	94	37.6	0	1	248	0.00	30.190 
03:50	39.2	39.2	39.2	94	37.6	0	1	248	0.00	30.190 
03:55	39.2	39.2	39.2	94	37.6	0	0	---	0.00	30.190 
04:00	39.2	39.2	39.2	94	37.6	0	0	---	0.00	30.185 
04:05	39.2	39.2	39.2	94	37.6	0	0	---	0.01	30.185 
04:10	39.2	39.2	39.2	94	37.6	0	0	---	0.00	30.185 
04:15	39.2	39.2	39.2	94	37.6	0	1	248	0.00	30.179 
04:20	39.2	39.2	39.2	94	37.6	0	0	---	0.00	30.179 
04:25	39.1	39.1	39.1	94	37.5	0	0	---	0.01	30.179 
04:30	39.1	39.1	39.1	94	37.5	0	1	248	0.00	30.177 
04:35	39.1	39.1	39.1	94	37.5	0	0	---	0.00	30.177 
04:40	39.2	39.2	39.2	94	37.6	0	0	---	0.01	30.177 
04:45	39.2	39.2	39.2	94	37.6	0	0	---	0.00	30.184 
04:50	39.2	39.2	39.2	94	37.6	0	1	248	0.00	30.184 
04:55	39.1	39.1	39.1	94	37.5	0	0	---	0.01	30.184 
05:00	39.1	39.1	39.1	94	37.5	0	0	---	0.00	30.187 
05:05	39.1	39.1	39.1	94	37.5	0	0	---	0.01	30.187 
05:10	39.1	39.1	39.1	94	37.5	0	1	248	0.00	30.187 
05:15	39.1	39.1	39.1	95	37.8	0	0	---	0.01	30.190 
05:20	39.1	39.1	39.1	95	37.8	0	0	---	0.00	30.190 
05:25	39.1	39.1	39.1	95	37.8	0	0	---	0.00	30.190 
05:30	39.1	39.1	39.1	95	37.8	0	0	---	0.01	30.198 
05:35	39.1	39.1	39.1	95	37.8	0	1	248	0.00	30.198 
05:40	39.1	39.1	39.1	95	37.8	0	1	248	0.01	30.198 
05:45	39.1	39.1	39.1	95	37.8	0	0	---	0.00	30.202 
05:50	39.1	39.1	39.1	95	37.8	0	0	---	0.00	30.202 
05:55	39.1	39.1	39.1	95	37.8	0	1	248	0.01	30.202 
06:00	39.1	39.1	39.1	95	37.8	0	0	---	0.00	30.201 
06:05	39.1	39.1	39.1	95	37.8	0	0	---	0.00	30.201 
06:10	39.1	39.1	39.1	95	37.8	0	1	248	0.00	30.201 
06:15	39.1	39.1	39.1	95	37.8	0	1	248	0.01	30.209 
06:20	39.1	39.1	39.1	95	37.8	0	0	---	0.00	30.209 
06:25	39.1	39.1	39.1	95	37.8	0	0	---	0.00	30.209 
06:30	39.1	39.1	39.1	95	37.8	0	1	248	0.01	30.218 
06:35	39.1	39.1	39.1	95	37.8	0	1	248	0.00	30.218 
06:40	39.1	39.1	39.1	95	37.8	0	0	---	0.00	30.218 
06:45	39.1	39.1	39.1	95	37.8	0	0	---	0.01	30.227 
06:50	39.1	39.1	39.1	95	37.8	0	0	---	0.00	30.227 
06:55	39.1	39.1	39.1	95	37.8	0	0	---	0.00	30.227 
07:00	39.1	39.1	39.1	95	37.8	0	0	---	0.00	30.229 
07:05	39.1	39.1	39.1	95	37.8	0	0	---	0.01	30.229 
07:10	39.1	39.1	39.1	95	37.8	0	1	248	0.00	30.229 
07:15	39.1	39.1	39.1	95	37.8	0	1	248	0.01	30.246 
07:20	39.1	39.1	39.1	95	37.8	0	1	248	0.00	30.246 
07:25	39.1	39.1	39.1	95	37.8	0	1	248	0.01	30.246 
07:30	39.1	39.1	39.1	95	37.8	0	0	---	0.00	30.239 
07:35	39.1	39.1	39.1	95	37.8	0	1	248	0.00	30.239 
07:40	38.9	38.9	38.9	95	37.6	0	0	---	0.01	30.239 
07:45	38.9	38.9	38.9	95	37.6	0	0	---	0.00	30.233 
07:50	38.9	38.9	38.9	95	37.6	0	1	248	0.00	30.233 
07:55	38.9	38.9	38.9	95	37.6	0	0	---	0.00	30.233 
08:00	38.9	38.9	38.9	95	37.6	0	2	248	0.00	30.224 
08:05	38.9	38.9	38.9	95	37.6	0	2	248	0.00	30.224 
08:10	38.9	38.9	38.9	95	37.6	0	1	248	0.00	30.224 
08:15	38.9	38.9	38.9	95	37.6	0	1	248	0.00	30.205 
08:20	38.9	38.9	38.9	95	37.6	0	2	248	0.00	30.205 
08:25	38.9	38.9	38.9	95	37.6	0	2	248	0.00	30.205 
08:30	38.9	38.9	38.9	95	37.6	0	1	248	0.00	30.200 
08:35	39.1	39.1	39.1	96	38.1	0	1	248	0.00	30.200 
08:40	39.1	39.1	39.1	96	38.1	0	1	248	0.00	30.200 
08:45	39.1	39.1	39.1	96	38.1	0	1	248	0.00	30.188 
08:50	39.2	39.2	39.2	96	38.2	0	2	248	0.00	30.188 
08:55	39.2	39.2	39.2	95	37.9	0	1	248	0.00	30.188 
09:00	39.2	39.2	39.2	96	38.2	0	0	---	0.00	30.198 
09:05	39.2	39.2	39.2	96	38.2	0	1	248	0.00	30.198 
09:10	39.2	39.2	39.2	96	38.2	0	1	248	0.00	30.198 
09:15	39.3	39.3	39.3	96	38.3	0	2	248	0.00	30.211 
09:20	39.3	39.3	39.3	96	38.3	0	2	248	0.00	30.211 
09:25	39.2	39.2	39.2	96	38.2	0	2	248	0.00	30.211 
09:30	39.2	39.2	39.2	96	38.2	0	0	---	0.00	30.206 
09:35	39.3	39.3	39.3	96	38.3	0	0	---	0.00	30.206 
09:40	39.3	39.3	39.3	96	38.3	0	1	248	0.00	30.206 
09:45	39.3	39.3	39.3	96	38.3	0	1	248	0.00	30.210 
09:50	39.3	39.3	39.3	96	38.3	0	1	248	0.00	30.210 
09:55	39.3	39.3	39.3	96	38.3	0	1	248	0.01	30.210 
10:00	39.3	39.3	39.3	96	38.3	0	1	248	0.00	30.215 
10:05	39.5	39.5	39.5	96	38.5	0	0	---	0.01	30.215 
10:10	39.5	39.5	39.5	96	38.5	0	1	248	0.00	30.215 
10:15	39.5	39.5	39.5	96	38.5	0	2	248	0.01	30.221 
10:20	39.5	39.5	39.5	96	38.5	0	1	248	0.00	30.221 
10:25	39.5	39.5	39.5	96	38.5	0	1	248	0.01	30.221 
10:30	39.5	39.5	39.5	96	38.5	0	2	248	0.00	30.225 
10:35	39.5	39.5	39.5	96	38.5	0	1	248	0.00	30.225 
10:40	39.5	39.5	39.5	96	38.5	0	1	248	0.00	30.225 
10:45	39.5	39.5	39.5	96	38.5	0	1	248	0.00	30.216 
10:50	39.6	39.6	39.6	96	38.6	0	1	248	0.00	30.216 
10:55	39.6	39.6	39.6	96	38.6	0	2	248	0.00	30.216 
11:00	39.6	39.6	39.6	96	38.6	0	1	248	0.01	30.213 
11:05	39.6	39.6	39.6	96	38.6	0	2	248	0.00	30.213 
11:10	39.6	39.6	39.6	96	38.6	0	5	248	0.00	30.213 
11:15	39.5	39.5	39.5	95	38.2	0	5	248	0.00	30.212 
11:20	39.5	39.5	39.5	96	38.5	0	3	158	0.00	30.212 
11:25	39.5	39.5	39.5	96	38.5	1	2	158	0.00	30.212 
11:30	39.5	39.5	39.5	95	38.2	0	2	68	0.00	30.186 
11:35	39.5	39.5	39.5	96	38.5	1	3	90	0.00	30.186 
11:40	39.6	39.6	39.6	96	38.6	0	3	112	0.01	30.186 
11:45	39.6	39.6	39.6	95	38.3	1	4	112	0.00	30.181 
11:50	39.6	39.6	39.6	96	38.6	0	3	292	0.00	30.181 
11:55	39.5	39.5	39.5	96	38.5	0	2	45	0.00	30.181 
12:00	39.5	39.5	39.5	95	38.2	1	3	135	0.00	30.182 
12:05	39.5	39.5	39.5	95	38.2	0	2	112	0.00	30.182 
12:10	39.5	39.5	39.5	95	38.2	0	2	68	0.00	30.182 
12:15	39.5	39.5	39.5	95	38.2	0	4	68	0.00	30.180 
12:20	39.5	39.5	39.5	95	38.2	0	2	90	0.00	30.180 
12:25	39.5	39.5	39.5	95	38.2	1	5	90	0.01	30.180 
12:30	39.3	39.3	39.3	95	38.0	0	4	135	0.00	30.186 
12:35	39.3	39.3	39.3	95	38.0	0	2	135	0.00	30.186 
12:40	39.3	39.3	39.3	95	38.0	0	4	22	0.00	30.186 
12:45	39.2	39.2	39.2	95	37.9	0	3	68	0.01	30.178 
12:50	39.2	39.2	39.2	95	37.9	0	2	68	0.00	30.178 
12:55	39.2	39.2	39.2	95	37.9	1	3	158	0.00	30.178 
13:00	39.2	39.2	39.2	95	37.9	0	1	22	0.00	30.168 
13:05	39.2	39.2	39.2	95	37.9	0	3	248	0.01	30.168 
13:10	39.2	39.2	39.2	95	37.9	0	4	45	0.00	30.168 
13:15	39.1	39.1	39.1	95	37.8	0	2	45	0.01	30.170 
13:20	39.1	39.1	39.1	95	37.8	0	3	22	0.01	30.170 
13:25	39.1	39.1	39.1	95	37.8	0	2	22	0.00	30.170 
13:30	39.1	39.1	39.1	95	37.8	0	3	22	0.01	30.166 
13:35	39.1	39.1	39.1	95	37.8	0	4	135	0.00	30.166 
13:40	39.2	39.2	39.2	95	37.9	1	5	90	0.01	30.166 
13:45	39.1	39.1	39.1	95	37.8	1	4	112	0.00	30.153 
13:50	39.1	39.1	39.1	95	37.8	1	6	135	0.00	30.153 
13:55	39.1	39.1	39.1	95	37.8	1	6	112	0.00	30.153 
14:00	39.2	39.2	39.2	95	37.9	1	5	135	0.00	30.153 
14:05	39.2	39.2	39.2	95	37.9	0	2	45	0.00	30.153 
14:10	39.2	39.2	39.2	95	37.9	0	3	315	0.00	30.153 
14:15	39.2	39.2	39.2	95	37.9	1	4	112	0.01	30.151 
14:20	39.2	39.2	39.2	95	37.9	0	1	112	0.00	30.151 
14:25	39.1	39.1	39.1	95	37.8	1	4	90	0.00	30.151 
14:30	39.1	39.1	39.1	95	37.8	1	6	135	0.00	30.152 
14:35	39.1	39.1	39.1	95	37.8	1	4	112	0.01	30.152 
14:40	39.1	39.1	39.1	95	37.8	0	2	338	0.00	30.152 
14:45	38.9	38.9	38.9	95	37.6	1	5	45	0.01	30.153 
14:50	38.9	38.9	38.9	95	37.6	1	7	112	0.00	30.153 
14:55	38.8	38.8	38.8	95	37.5	1	5	135	0.01	30.153 
15:00	38.8	38.8	38.8	95	37.5	1	4	135	0.00	30.138 
15:05	38.8	38.8	38.8	95	37.5	0	3	68	0.01	30.138 
15:10	38.6	38.6	38.6	94	37.0	1	5	90	0.00	30.138 
15:15	38.5	38.5	38.5	94	36.9	1	6	45	0.00	30.148 
15:20	38.0	38.0	38.0	94	36.4	1	6	45	0.01	30.148 
15:25	37.6	37.6	37.6	94	36.0	2	6	68	0.00	30.148 
15:30	37.3	37.3	37.3	94	35.7	1	4	90	0.00	30.155 
15:35	37.3	37.3	37.3	94	35.7	1	5	45	0.00	30.155 
15:40	37.2	37.2	37.2	93	35.4	3	6	112	0.00	30.155 
15:45	37.0	37.0	37.0	93	35.2	2	11	112	0.00	30.155 
15:50	37.0	37.0	37.0	93	35.2	2	5	135	0.00	30.155 
15:55	37.0	37.0	37.0	93	35.2	1	5	112	0.00	30.155 
16:00	36.9	36.9	36.9	93	35.1	1	6	90	0.01	30.163 
16:05	36.9	36.9	36.9	93	35.1	1	6	112	0.00	30.163 
16:10	36.9	36.9	36.9	93	35.1	1	3	112	0.00	30.163 
16:15	36.9	36.9	36.9	93	35.1	1	3	45	0.00	30.165 
16:20	36.9	36.9	36.9	93	35.1	1	4	112	0.01	30.165 
16:25	36.8	36.8	36.8	93	35.0	2	5	90	0.00	30.165 
16:30	36.6	36.6	36.6	93	34.8	1	4	112	0.00	30.169 
16:35	36.3	36.3	36.3	93	34.5	2	5	90	0.01	30.169 
16:40	36.2	36.2	36.2	93	34.4	1	7	112	0.00	30.169 
16:45	36.0	36.0	36.0	93	34.2	1	5	112	0.01	30.169 
16:50	35.8	35.8	35.8	93	34.0	1	3	112	0.00	30.169 
16:55	35.6	35.6	35.6	93	33.8	0	4	112	0.00	30.169 
17:00	35.5	35.5	35.5	93	33.7	1	4	90	0.01	30.168 
17:05	35.2	35.2	35.2	93	33.4	0	2	68	0.00	30.168 
17:10	34.7	34.7	34.7	93	32.9	2	7	68	0.00	30.168 
17:15	34.6	34.6	34.6	93	32.8	1	6	90	0.00	30.185 
17:20	34.3	34.3	34.3	93	32.5	1	4	112	0.00	30.185 
17:25	34.1	34.1	34.1	93	32.3	0	2	90	0.00	30.185 
17:30	34.0	34.0	34.0	93	32.2	1	4	112	0.00	30.185 
17:35	33.8	33.8	33.8	93	32.0	0	4	112	0.00	30.185 
17:40	33.7	33.7	33.7	93	31.9	1	4	112	0.00	30.185 
17:45	33.5	33.5	33.5	93	31.7	1	4	112	0.00	30.191 
17:50	33.4	33.4	33.4	93	31.6	1	4	45	0.00	30.191 
17:55	33.4	33.4	33.4	93	31.6	1	3	90	0.00	30.191 
18:00	33.2	33.2	33.2	93	31.4	1	4	90	0.00	30.203 
18:05	33.2	33.2	33.2	93	31.4	1	4	68	0.00	30.203 
18:10	33.2	33.2	33.2	94	31.7	0	3	112	0.00	30.203 
18:15	33.2	33.2	33.2	94	31.7	1	3	90	0.01	30.208 
18:20	33.2	33.2	33.2	94	31.7	1	4	90	0.00	30.208 
18:25	33.2	33.2	33.2	94	31.7	1	3	112	0.00	30.208 
18:30	33.1	33.1	33.1	94	31.6	0	3	90	0.00	30.211 
18:35	33.1	33.1	33.1	94	31.6	0	3	112	0.00	30.211 
18:40	33.1	33.1	33.1	94	31.6	1	4	135	0.00	30.211 
18:45	33.1	33.1	33.1	94	31.6	1	5	90	0.00	30.209 
18:50	33.1	33.1	33.1	94	31.6	2	5	90	0.00	30.209 
18:55	33.1	33.1	33.1	94	31.6	3	7	90	0.00	30.209 
19:00	33.1	33.1	33.1	94	31.6	2	7	90	0.00	30.208 
19:05	33.1	33.1	33.1	94	31.6	2	4	45	0.00	30.208 
19:10	33.1	33.1	33.1	94	31.6	2	7	112	0.00	30.208 
19:15	33.1	33.1	33.1	94	31.6	1	5	90	0.00	30.215 
19:20	33.1	33.1	33.1	94	31.6	2	7	45	0.00	30.215 
19:25	32.9	32.9	32.9	94	31.4	1	5	135	0.00	30.215 
19:30	32.9	32.9	32.9	94	31.4	1	5	112	0.00	30.222 
19:35	32.9	32.9	32.9	94	31.4	1	6	112	0.00	30.222 
19:40	32.9	32.9	32.9	94	31.4	1	3	135	0.00	30.222 
19:45	32.9	32.9	32.9	94	31.4	1	5	135	0.00	30.223 
19:50	32.9	32.9	32.9	94	31.4	1	4	112	0.00	30.223 
19:55	32.8	32.8	32.8	94	31.3	0	2	45	0.00	30.223 
20:00	32.8	32.8	32.8	94	31.3	0	2	292	0.00	30.221 
20:05	32.8	32.8	32.8	94	31.3	0	1	292	0.00	30.221 
20:10	32.8	32.8	32.8	94	31.3	0	2	0	0.00	30.221 
20:15	32.7	32.7	32.7	94	31.2	0	2	0	0.01	30.235 
20:20	32.7	32.7	32.7	94	31.2	1	5	112	0.00	30.235 
20:25	32.7	32.7	32.7	94	31.2	0	3	45	0.00	30.235 
20:30	32.7	32.7	32.7	94	31.2	0	2	90	0.00	30.251 
20:35	32.7	32.7	32.7	94	31.2	0	3	135	0.00	30.251 
20:40	32.7	32.7	32.7	94	31.2	1	3	0	0.00	30.251 
20:45	32.5	32.5	32.5	94	31.0	1	3	135	0.00	30.246 
20:50	32.5	32.5	32.5	94	31.0	1	4	135	0.00	30.246 
20:55	32.5	32.5	32.5	94	31.0	0	2	0	0.00	30.246 
21:00	32.5	32.5	32.5	94	31.0	0	2	158	0.00	30.251 
21:05	32.5	32.5	32.5	94	31.0	0	2	158	0.00	30.251 
21:10	32.5	32.5	32.5	94	31.0	1	7	22	0.00	30.251 
21:15	32.5	32.5	32.5	94	31.0	1	7	135	0.00	30.236 
21:20	32.4	32.4	32.4	94	30.9	2	6	90	0.00	30.236 
21:25	32.4	32.4	32.4	94	30.9	1	6	112	0.00	30.236 
21:30	32.4	32.4	32.4	94	30.9	1	6	135	0.00	30.236 
21:35	32.4	32.4	32.4	94	30.9	1	5	112	0.00	30.236 
21:40	32.4	32.4	32.4	94	30.9	1	3	112	0.00	30.236 
21:45	32.2	32.2	32.2	94	30.7	1	4	90	0.00	30.222 
21:50	32.2	32.2	32.2	94	30.7	1	4	90	0.00	30.222 
21:55	32.2	32.2	32.2	94	30.7	1	3	90	0.00	30.222 
22:00	32.2	32.2	32.2	94	30.7	1	3	112	0.00	30.205 
22:05	32.2	32.2	32.2	94	30.7	1	4	112	0.00	30.205 
22:10	32.2	32.2	32.2	95	30.9	1	4	90	0.00	30.205 
22:15	32.2	32.2	32.2	95	30.9	0	4	68	0.00	30.181 
22:20	32.2	32.2	32.2	95	30.9	1	5	112	0.00	30.181 
22:25	32.2	32.2	32.2	94	30.7	1	3	112	0.00	30.181 
22:30	32.2	32.2	32.2	94	30.7	1	3	45	0.00	30.202 
22:35	32.2	32.2	32.2	94	30.7	1	3	112	0.00	30.202 
22:40	32.2	32.2	32.2	94	30.7	0	3	112	0.00	30.202 
22:45	32.2	32.2	32.2	94	30.7	0	3	112	0.00	30.207 
22:50	32.2	32.2	32.2	94	30.7	0	2	68	0.00	30.207 
22:55	32.2	32.2	32.2	94	30.7	0	3	112	0.00	30.207 
23:00	32.2	32.2	32.2	94	30.7	1	3	90	0.00	30.222 
23:05	32.2	32.2	32.2	94	30.7	0	2	135	0.00	30.222 
23:10	32.2	32.2	32.2	94	30.7	0	1	135	0.00	30.222 
23:15	32.4	32.4	32.4	94	30.9	0	3	135	0.00	30.221 
23:20	32.4	32.4	32.4	94	30.9	0	3	135	0.00	30.221 
23:25	32.4	32.4	32.4	94	30.9	0	3	292	0.00	30.221 
23:30	32.4	32.4	32.4	94	30.9	0	2	68	0.00	30.220 
23:35	32.2	32.2	32.2	94	30.7	1	3	135	0.00	30.220 
23:40	32.4	32.4	32.4	94	30.9	0	1	135	0.00	30.220 
23:45	32.4	32.4	32.4	94	30.9	0	0	---	0.00	30.219 
23:50	32.4	32.4	32.4	94	30.9	0	0	---	0.00	30.219 
23:55	32.4	32.4	32.4	94	30.9	0	1	135	0.00	30.219 

CoCoRaHS
IN-AL-39
A2 Web Hosting
Creative Commons License
GoDaddy
search engine by freefind advanced

loaded 2018-11-13 01:28:14 • last modified 2010-11-18 10:43:29
Privacy PolicyDisclaimer
• wx.awcolley.com is powered by PmWiki v.2002016 •
• all content (unless otherwise noted) © 2018 A W Colley